Thor Magnhild — 9V2628 — position and weather

sailwx.info

Track history (hours):
 
Tides and Currents Weather Stations Pressure Air Temp Water Temp Dewpoint Dewpoint Depression Visibility Wind Speed Wind Dir Waves Ship Positions

Thor Magnhild

Last reported at 2018-Jun-22 07:33 UTC. Time now 2018-Jun-24 18:53 UTC.
Position N 30°32' W 014°58'.

Length 189 m; draft 10.5 m.

Type: Cargo ship. MMSI: 564415000.

Date/timePositionNaut miles runAvg speedWind from/ knotsBaromVisibWave heightAir tempDewpointWater temp
2018-Jun-22 07:33N 30°32' W 014°58'313.6
2018-Jun-22 07:19N 30°29' W 014°59'513.5
2018-Jun-22 06:56N 30°24' W 014°59'613.4
2018-Jun-22 06:30N 30°18' W 015°00'713.3
2018-Jun-22 06:00N 30°11' W 015°01'713.4
2018-Jun-22 05:30N 30°05' W 015°03'713.2
2018-Jun-22 05:00N 29°58' W 015°04'813.0
2018-Jun-22 04:22N 29°50' W 015°05'513.0
2018-Jun-22 03:57N 29°45' W 015°06'613.0
2018-Jun-22 03:30N 29°39' W 015°07'813.1
2018-Jun-22 02:55N 29°31' W 015°08'512.9
2018-Jun-22 02:30N 29°26' W 015°09'612.8
2018-Jun-22 02:00N 29°20' W 015°10'713.1
2018-Jun-22 01:29N 29°13' W 015°12'613.1
2018-Jun-22 01:00N 29°07' W 015°13'713.0
2018-Jun-22 00:29N 29°00' W 015°14'612.8
2018-Jun-22 00:00N 28°54' W 015°15'612.9
2018-Jun-21 23:30N 28°48' W 015°16'713.1
2018-Jun-21 23:00N 28°41' W 015°17'713.2
2018-Jun-21 22:30N 28°35' W 015°18'613.1
2018-Jun-21 22:00N 28°28' W 015°19'713.2
2018-Jun-21 21:30N 28°22' W 015°20'713.7
2018-Jun-21 21:00N 28°15' W 015°21'713.2
2018-Jun-21 20:30N 28°08' W 015°22'3 5.9
2018-Jun-21 20:00N 28°06' W 015°24'0 0.1
2018-Jun-21 19:30N 28°06' W 015°24'0 0.0
2018-Jun-21 19:00N 28°06' W 015°24'0 0.0
2018-Jun-21 18:30N 28°06' W 015°24'0 0.0
2018-Jun-21 18:00N 28°06' W 015°24'0 0.0
2018-Jun-21 17:30N 28°06' W 015°24'0 0.1
2018-Jun-21 16:51N 28°06' W 015°24'0 0.0
2018-Jun-21 16:21N 28°06' W 015°24'0 0.0
2018-Jun-21 15:51N 28°06' W 015°24'0 0.0
2018-Jun-21 15:24N 28°06' W 015°24'0 0.1
2018-Jun-21 14:54N 28°06' W 015°24'0 0.1
2018-Jun-21 14:30N 28°06' W 015°24'0 0.0
2018-Jun-21 14:00N 28°06' W 015°24'0 0.0
2018-Jun-21 13:30N 28°06' W 015°24'0 0.0
2018-Jun-21 13:01N 28°06' W 015°24'0 0.0
2018-Jun-21 12:31N 28°06' W 015°24'0 0.0
2018-Jun-21 12:01N 28°06' W 015°24'0 0.0
2018-Jun-21 11:31N 28°06' W 015°24'0 0.0
2018-Jun-21 11:01N 28°06' W 015°24'0 0.0
2018-Jun-21 10:31N 28°06' W 015°24'0 0.6
2018-Jun-21 09:59N 28°07' W 015°24'3 5.7
2018-Jun-21 09:30N 28°06' W 015°21'612.4
2018-Jun-21 09:00N 28°01' W 015°16'611.9
2018-Jun-21 08:31N 27°56' W 015°14'612.2
2018-Jun-21 08:00N 27°50' W 015°14'612.7
2018-Jun-21 07:30N 27°43' W 015°14'613.0
2018-Jun-21 07:00N 27°37' W 015°14'  
Track history (hours):
 
Tides and Currents Weather Stations Pressure Air Temp Water Temp Dewpoint Dewpoint Depression Visibility Wind Speed Wind Dir Waves Ship Positions

Thor Magnhild

Last reported at 2018-Jun-22 07:33 UTC. Time now 2018-Jun-24 18:53 UTC.
Position N 30°32' W 014°58'.

Length 189 m; draft 10.5 m.

Type: Cargo ship. MMSI: 564415000.

Date/timePositionNaut miles runAvg speedWind from/ knotsBaromVisibWave heightAir tempDewpointWater temp
2018-Jun-22 07:33N 30°32' W 014°58'313.6
2018-Jun-22 07:19N 30°29' W 014°59'513.5
2018-Jun-22 06:56N 30°24' W 014°59'613.4
2018-Jun-22 06:30N 30°18' W 015°00'713.3
2018-Jun-22 06:00N 30°11' W 015°01'713.4
2018-Jun-22 05:30N 30°05' W 015°03'713.2
2018-Jun-22 05:00N 29°58' W 015°04'813.0
2018-Jun-22 04:22N 29°50' W 015°05'513.0
2018-Jun-22 03:57N 29°45' W 015°06'613.0
2018-Jun-22 03:30N 29°39' W 015°07'813.1
2018-Jun-22 02:55N 29°31' W 015°08'512.9
2018-Jun-22 02:30N 29°26' W 015°09'612.8
2018-Jun-22 02:00N 29°20' W 015°10'713.1
2018-Jun-22 01:29N 29°13' W 015°12'613.1
2018-Jun-22 01:00N 29°07' W 015°13'713.0
2018-Jun-22 00:29N 29°00' W 015°14'612.8
2018-Jun-22 00:00N 28°54' W 015°15'612.9
2018-Jun-21 23:30N 28°48' W 015°16'713.1
2018-Jun-21 23:00N 28°41' W 015°17'713.2
2018-Jun-21 22:30N 28°35' W 015°18'613.1
2018-Jun-21 22:00N 28°28' W 015°19'713.2
2018-Jun-21 21:30N 28°22' W 015°20'713.7
2018-Jun-21 21:00N 28°15' W 015°21'713.2
2018-Jun-21 20:30N 28°08' W 015°22'3 5.9
2018-Jun-21 20:00N 28°06' W 015°24'0 0.1
2018-Jun-21 19:30N 28°06' W 015°24'0 0.0
2018-Jun-21 19:00N 28°06' W 015°24'0 0.0
2018-Jun-21 18:30N 28°06' W 015°24'0 0.0
2018-Jun-21 18:00N 28°06' W 015°24'0 0.0
2018-Jun-21 17:30N 28°06' W 015°24'0 0.1
2018-Jun-21 16:51N 28°06' W 015°24'0 0.0
2018-Jun-21 16:21N 28°06' W 015°24'0 0.0
2018-Jun-21 15:51N 28°06' W 015°24'0 0.0
2018-Jun-21 15:24N 28°06' W 015°24'0 0.1
2018-Jun-21 14:54N 28°06' W 015°24'0 0.1
2018-Jun-21 14:30N 28°06' W 015°24'0 0.0
2018-Jun-21 14:00N 28°06' W 015°24'0 0.0
2018-Jun-21 13:30N 28°06' W 015°24'0 0.0
2018-Jun-21 13:01N 28°06' W 015°24'0 0.0
2018-Jun-21 12:31N 28°06' W 015°24'0 0.0
2018-Jun-21 12:01N 28°06' W 015°24'0 0.0
2018-Jun-21 11:31N 28°06' W 015°24'0 0.0
2018-Jun-21 11:01N 28°06' W 015°24'0 0.0
2018-Jun-21 10:31N 28°06' W 015°24'0 0.6
2018-Jun-21 09:59N 28°07' W 015°24'3 5.7
2018-Jun-21 09:30N 28°06' W 015°21'612.4
2018-Jun-21 09:00N 28°01' W 015°16'611.9
2018-Jun-21 08:31N 27°56' W 015°14'612.2
2018-Jun-21 08:00N 27°50' W 015°14'612.7
2018-Jun-21 07:30N 27°43' W 015°14'613.0
2018-Jun-21 07:00N 27°37' W 015°14'  

Dump ship's entire track history